Airfield :
LOGIN :

Register | Disclaimer

   EN    FR    IT 

 










Legend :    VFR   Marginal VFR   IFR   Intensive IFR   Very Intensive IFR
Visi :
Ceiling :
>= 8 km
>= 3000ft
5 to 8 km
1000 to 3000 ft
1500m to 5 km
500 to 1000 ft
800 to 1500m
200 to 500 ft
< 800m
< 200 ft
Symbols :   Thunderstorms  Fog  Heavy snow  Heavy precipitations  Wind > 20 kt
SIGMETs :     Misc.  Thunderstorms  Icing  Turbulence  Mountain Waves  Volcanic Ashes







- Airport Elevation : 13 ft
- IATA code : SNR
- Download approach charts


LFRZ - St-Nazaire

CURRENT METAR :
  • 220200Z AUTO 01006KT 6000 NSC 06/05 Q1029 TEMPO 0500 FG VV///

EXPIRED METARs :
  • 220130Z AUTO 36004KT 6000 NSC 06/05 Q1029 TEMPO 0500 FG VV///
  • 220100Z AUTO 35004KT 7000 NSC 07/05 Q1029 TEMPO 3000 BR
  • 220000Z AUTO 05004KT 010V070 CAVOK 07/06 Q1029 NOSIG

TAF TAF LFRZ
Valid from the 22 at 00:00 until the 23 at 00:00 UTC


212300Z 2200/2224 02006KT CAVOK
TEMPO 2202/2208 3000 BR
PROB40
TEMPO 2203/2206 0500 FG VV///
No reported NOTAMs for that airfield.



MET'MAP, your aeronautical weather chart ! - Copyright ORBIFLY December 2007 - Disclaimer

ORBIFLY MET'MAP TEAM :

Programming & Development : Alexandra Zaïnal
Concept & Development : Baudouin d'Aumeries
Co-Development & Prog : Marc-Olivier Méhu
Technical & hardware support : Manuel Goepfert

Contact : metmap@orbifly.com




SOURCES & CREDITS :

   NOAA